< Cyclone 198004 1980 Season Cyclone 198006 >
Cyclone 198005 (AMY)
General InformationTrack Information on Google Maps || ResourceGoogle EarthGE AnimationAtom FeedGeoJSON
Detalied Best Track (Time Zone = UTC)
Year Month Day Hour Lat. Long. Pressure (hPa) Wind (kt) Class Image Chart
1980 1 4 12 -14.4 120.5 998 0 0 -- --
1980 1 4 18 -14.6 120.1 997 0 0 -- --
1980 1 5 00 -14.7 119.8 995 0 0 -- --
1980 1 5 06 -14.7 119.8 992 0 0 -- --
1980 1 5 12 -14.7 119.7 990 0 0 -- --
1980 1 5 18 -14.7 119.7 987 0 0 -- --
1980 1 6 00 -14.7 119.7 985 0 0 -- --
1980 1 6 06 -14.7 119.5 980 0 0 -- --
1980 1 6 12 -14.7 119.3 975 0 0 -- --
1980 1 6 18 -14.8 119.1 970 0 0 -- --
1980 1 7 00 -14.9 118.8 965 0 0 -- --
1980 1 7 06 -15.3 118.5 959 0 0 -- --
1980 1 7 12 -15.7 118.3 954 0 0 -- --
1980 1 7 18 -16.3 118.3 949 0 0 -- --
1980 1 8 00 -17.0 118.3 945 0 0 -- --
1980 1 8 06 -17.5 118.3 937 0 0 -- --
1980 1 8 12 -18.0 118.4 932 0 0 -- --
1980 1 8 18 -18.4 118.5 925 0 0 -- --
1980 1 9 00 -18.7 118.8 920 0 0 -- --
1980 1 9 06 -19.1 119.3 918 0 0 -- --
1980 1 9 12 -19.3 119.6 916 0 0 -- --
1980 1 9 18 -19.5 119.8 915 0 0 -- --
1980 1 10 00 -19.7 119.8 915 0 0 -- --
1980 1 10 06 -20.2 119.6 915 0 0 -- --
1980 1 10 12 -20.5 119.2 917 0 0 -- --
1980 1 10 18 -21.0 118.4 974 0 0 -- --
1980 1 11 00 -21.9 117.9 985 0 0 -- --
1980 1 11 06 -22.7 117.0 989 0 0 -- --
1980 1 11 12 -23.9 116.8 992 0 0 -- --
1980 1 11 18 -25.2 116.9 995 0 0 -- --
1980 1 12 00 -26.3 117.0 999 0 0 -- --
1980 1 12 06 -28.5 117.6 1000 0 0 -- --
1980 1 12 12 -30.0 119.0 1002 0 0 -- --
1980 1 12 18 -31.3 121.3 1003 0 0 -- --
< Cyclone 198004 1980 Season Cyclone 198006 >

Help